Map

Track Data

SID SEASON NUMBER BASIN SUBBASIN NAME ISO_TIME NATURE LAT LON WMO_WIND WMO_PRES WMO_AGENCY TRACK_TYPE DIST2LAND LANDFALL IFLAG USA_AGENCY USA_ATCF_ID USA_LAT USA_LON USA_RECORD USA_STATUS USA_WIND USA_PRES USA_SSHS USA_R34_NE USA_R34_SE USA_R34_SW USA_R34_NW USA_R50_NE USA_R50_SE USA_R50_SW USA_R50_NW USA_R64_NE USA_R64_SE USA_R64_SW USA_R64_NW USA_POCI USA_ROCI USA_RMW USA_EYE TOKYO_LAT TOKYO_LON TOKYO_GRADE TOKYO_WIND TOKYO_PRES TOKYO_R50_DIR TOKYO_R50_LONG TOKYO_R50_SHORT TOKYO_R30_DIR TOKYO_R30_LONG TOKYO_R30_SHORT TOKYO_LAND CMA_LAT CMA_LON CMA_CAT CMA_WIND CMA_PRES HKO_LAT HKO_LON HKO_CAT HKO_WIND HKO_PRES NEWDELHI_LAT NEWDELHI_LON NEWDELHI_GRADE NEWDELHI_WIND NEWDELHI_PRES NEWDELHI_CI NEWDELHI_DP NEWDELHI_POCI REUNION_LAT REUNION_LON REUNION_TYPE REUNION_WIND REUNION_PRES REUNION_TNUM REUNION_CI REUNION_RMW REUNION_R34_NE REUNION_R34_SE REUNION_R34_SW REUNION_R34_NW REUNION_R50_NE REUNION_R50_SE REUNION_R50_SW REUNION_R50_NW REUNION_R64_NE REUNION_R64_SE REUNION_R64_SW REUNION_R64_NW BOM_LAT BOM_LON BOM_TYPE BOM_WIND BOM_PRES BOM_TNUM BOM_CI BOM_RMW BOM_R34_NE BOM_R34_SE BOM_R34_SW BOM_R34_NW BOM_R50_NE BOM_R50_SE BOM_R50_SW BOM_R50_NW BOM_R64_NE BOM_R64_SE BOM_R64_SW BOM_R64_NW BOM_ROCI BOM_POCI BOM_EYE BOM_POS_METHOD BOM_PRES_METHOD NADI_LAT NADI_LON NADI_CAT NADI_WIND NADI_PRES WELLINGTON_LAT WELLINGTON_LON WELLINGTON_WIND WELLINGTON_PRES DS824_LAT DS824_LON DS824_STAGE DS824_WIND DS824_PRES TD9636_LAT TD9636_LON TD9636_STAGE TD9636_WIND TD9636_PRES TD9635_LAT TD9635_LON TD9635_WIND TD9635_PRES TD9635_ROCI NEUMANN_LAT NEUMANN_LON NEUMANN_CLASS NEUMANN_WIND NEUMANN_PRES MLC_LAT MLC_LON MLC_CLASS MLC_WIND MLC_PRES USA_GUST BOM_GUST BOM_GUST_PER REUNION_GUST REUNION_GUST_PER USA_SEAHGT USA_SEARAD_NE USA_SEARAD_SE USA_SEARAD_SW USA_SEARAD_NW STORM_SPEED STORM_DIR
1951093S15054 1951 22 SI MM NOT_NAMED 1951-04-02 12:00:00 NR -15.1000 54.0000 reunion main 375 365 _____O________ -1 -15.1000 54.0000 99 9.90000 2 253
1951093S15054 1951 22 SI MM NOT_NAMED 1951-04-02 15:00:00 NR -15.1259 53.9067 main 365 354 _____P________ -1 -15.1259 53.9067 99 2 252
1951093S15054 1951 22 SI MM NOT_NAMED 1951-04-02 18:00:00 NR -15.1576 53.8116 main 354 343 _____P________ -1 -15.1576 53.8116 99 2 248
1951093S15054 1951 22 SI MM NOT_NAMED 1951-04-02 21:00:00 NR -15.2011 53.7128 main 343 332 _____P________ -1 -15.2011 53.7128 99 2 242
1951093S15054 1951 22 SI MM NOT_NAMED 1951-04-03 00:00:00 NR -15.2622 53.6086 main 332 321 _____P________ -1 -15.2622 53.6086 99 3 235
1951093S15054 1951 22 SI MM NOT_NAMED 1951-04-03 03:00:00 NR -15.3467 53.4971 main 321 289 _____P________ -1 -15.3467 53.4971 99 4 257
1951093S15054 1951 22 SI MM NOT_NAMED 1951-04-03 06:00:00 TS -15.3489 53.2151 main 289 268 O____P___OO___ jtwc_sh SH261951 -15.2000 53.0000 -1 -15.4606 53.3764 99 -15.2000 53.0000 TC 25 -15.2000 53.0000 7 5 251
1951093S15054 1951 22 SI MM NOT_NAMED 1951-04-03 09:00:00 TS -15.5154 52.9784 main 268 247 P____P___PP___ SH261951 -15.4476 52.7901 -1 -15.6098 53.2447 99 -15.4476 52.7901 TC 25 -15.4626 52.8223 7 6 228
1951093S15054 1951 22 SI MM NOT_NAMED 1951-04-03 12:00:00 TS -15.7354 52.7643 reunion main 248 231 O____O___OP___ jtwc_sh SH261951 -15.7000 52.6000 -1 -15.8000 53.1000 99 9.90000 -15.7000 52.6000 TC 25 -15.7201 52.6455 7 6 220
1951093S15054 1951 22 SI MM NOT_NAMED 1951-04-03 15:00:00 TS -15.9794 52.5743 main 234 222 P____P___PP___ SH261951 -15.9575 52.4425 -1 -16.0352 52.9415 99 -15.9575 52.4425 TC 30 -15.9675 52.4709 7 6 214
1951093S15054 1951 22 SI MM NOT_NAMED 1951-04-03 18:00:00 TS -16.2279 52.4181 main 222 217 O____P___OO___ jtwc_sh SH261951 -16.2000 52.3000 -1 -16.3115 52.7725 99 -16.2000 52.3000 TC 35 -16.2000 52.3000 2 6 212
1951093S15054 1951 22 SI MM NOT_NAMED 1951-04-03 21:00:00 TS -16.4563 52.2580 main 226 212 P____P___PP___ SH261951 -16.3925 52.1499 -1 -16.6228 52.5978 99 -16.3925 52.1499 TC 35 -16.4175 52.1345 2 6 213
1951093S15054 1951 22 SI MM NOT_NAMED 1951-04-04 00:00:00 TS -16.7008 52.0998 main 217 211 O____P___OP___ jtwc_sh SH261951 -16.6000 52.0000 -1 -16.9633 52.4219 99 -16.6000 52.0000 TC 35 -16.6400 51.9772 2 6 210
1951093S15054 1951 22 SI MM NOT_NAMED 1951-04-04 03:00:00 TS -16.9899 51.9414 main 213 213 P____P___PP___ SH261951 -16.8700 51.8425 -1 -17.3272 52.2494 99 -16.8700 51.8425 TC 35 -16.8925 51.8313 2 7 205
1951093S15054 1951 22 SI MM NOT_NAMED 1951-04-04 06:00:00 TS -17.3271 51.7963 main 219 216 O____P___OO___ jtwc_sh SH261951 -17.2000 51.7000 -1 -17.7084 52.0850 99 -17.2000 51.7000 TC 35 -17.2000 51.7000 2 8 200
1951093S15054 1951 22 SI MM NOT_NAMED 1951-04-04 09:00:00 TS -17.7085 51.6720 main 225 221 P____P___PP___ SH261951 -17.5700 51.5924 -1 -18.1013 51.9336 99 -17.5700 51.5924 TC 35 -17.5925 51.5696 2 8 195
1951093S15054 1951 22 SI MM NOT_NAMED 1951-04-04 12:00:00 TS -18.1350 51.5638 reunion main 226 218 O____O___OP___ jtwc_sh SH261951 -18.0000 51.5000 -1 -18.5000 51.8000 99 9.90000 -18.0000 51.5000 TC 35 -18.0400 51.4553 2 9 193
1951093S15054 1951 22 SI MM NOT_NAMED 1951-04-04 15:00:00 TS -18.5900 51.4561 main 226 215 P____P___PP___ SH261951 -18.4925 51.3925 -1 -18.8576 51.6758 99 -18.4925 51.3925 TC 35 -18.5175 51.3634 2 9 191
1951093S15054 1951 22 SI MM NOT_NAMED 1951-04-04 18:00:00 TS -19.0558 51.3664 main 233 227 O____P___OO___ jtwc_sh SH261951 -19.0000 51.3000 -1 -19.2234 51.5656 99 -19.0000 51.3000 TC 35 -19.0000 51.3000 2 9 190
1951093S15054 1951 22 SI MM NOT_NAMED 1951-04-04 21:00:00 TS -19.4890 51.2953 main 237 237 P____P___PP___ SH261951 -19.4575 51.2275 -1 -19.5994 51.4712 99 -19.4575 51.2275 TC 35 -19.4418 51.2550 2 9 187
1951093S15054 1951 22 SI MM NOT_NAMED 1951-04-05 00:00:00 TS -19.9181 51.2586 main 251 251 O____P___OP___ jtwc_sh SH261951 -19.9000 51.2000 -1 -19.9875 51.3945 99 -19.9000 51.2000 TC 35 -19.8849 51.2401 2 9 182
1951093S15054 1951 22 SI MM NOT_NAMED 1951-04-05 03:00:00 TS -20.3525 51.2618 main 264 264 P____P___PP___ SH261951 -20.3425 51.2275 -1 -20.3896 51.3371 99 -20.3425 51.2275 TC 35 -20.3356 51.2552 2 9 177
1951093S15054 1951 22 SI MM NOT_NAMED 1951-04-05 06:00:00 TS -20.8019 51.3002 main 275 275 O____P___OO___ jtwc_sh SH261951 -20.8000 51.3000 -1 -20.8078 51.3010 99 -20.8000 51.3000 TC 35 -20.8000 51.3000 2 9 174
1951093S15054 1951 22 SI MM NOT_NAMED 1951-04-05 09:00:00 TS -21.2786 51.3600 main 306 306 P____P___PP___ SH261951 -21.2925 51.3925 -1 -21.2439 51.2880 99 -21.2925 51.3925 TC 35 -21.2856 51.3670 2 10 172
1951093S15054 1951 22 SI MM NOT_NAMED 1951-04-05 12:00:00 TS -21.7713 51.4406 reunion main 323 323 O____O___OP___ jtwc_sh SH261951 -21.8000 51.5000 -1 -21.7000 51.3000 99 9.90000 -21.8000 51.5000 TC 35 -21.7850 51.4623 2 10 171
1951093S15054 1951 22 SI MM NOT_NAMED 1951-04-05 15:00:00 TS -22.2800 51.5254 main 344 344 P____P___PP___ SH261951 -22.3000 51.6001 -1 -22.2279 51.3248 99 -22.3000 51.6001 TC 35 -22.2919 51.5765 2 10 171
1951093S15054 1951 22 SI MM NOT_NAMED 1951-04-05 18:00:00 TS -22.7958 51.6189 main 367 367 O____P___OO___ jtwc_sh SH261951 -22.8000 51.7000 -1 -22.7832 51.3756 99 -22.8000 51.7000 TC 35 -22.8000 51.7000 2 10 170
1951093S15054 1951 22 SI MM NOT_NAMED 1951-04-05 21:00:00 TS -23.3078 51.7105 main 396 396 P____P___PP___ SH261951 -23.3000 51.7927 -1 -23.3517 51.4503 99 -23.3000 51.7927 TC 35 -23.2796 51.8063 2 10 170
1951093S15054 1951 22 SI MM NOT_NAMED 1951-04-06 00:00:00 TS -23.8205 51.8169 main 419 419 O____P___OP___ jtwc_sh SH261951 -23.8000 51.9000 -1 -23.9194 51.5465 99 -23.8000 51.9000 TC 35 -23.7624 51.9211 2 10 168
1951093S15054 1951 22 SI MM NOT_NAMED 1951-04-06 03:00:00 TS -24.3265 51.9457 main 438 438 P____P___PP___ SH261951 -24.2850 52.0352 -1 -24.4722 51.6620 99 -24.2850 52.0352 TC 35 -24.2640 52.0503 2 11 166
1951093S15054 1951 22 SI MM NOT_NAMED 1951-04-06 06:00:00 TS -24.8490 52.0986 main 472 472 O____P___OO___ jtwc_sh SH261951 -24.8000 52.2000 -1 -24.9960 51.7945 99 -24.8000 52.2000 TC 35 -24.8000 52.2000 2 11 165
1951093S15054 1951 22 SI MM NOT_NAMED 1951-04-06 09:00:00 TS -25.4031 52.2733 main 509 509 P____P___PP___ SH261951 -25.3775 52.3926 -1 -25.4766 51.9414 99 -25.3775 52.3926 TC 35 -25.3809 52.3668 2 12 164
1951093S15054 1951 22 SI MM NOT_NAMED 1951-04-06 12:00:00 TS -25.9744 52.4640 reunion main 548 548 O____O___OP___ jtwc_sh SH261951 -26.0000 52.6000 -1 -25.9000 52.1000 99 9.90000 -26.0000 52.6000 TC 35 -25.9974 52.5559 2 12 163
1951093S15054 1951 22 SI MM NOT_NAMED 1951-04-06 15:00:00 TS -26.5453 52.6552 main 584 584 P____P___PP___ SH261951 -26.6424 52.7928 -1 -26.2560 52.2679 99 -26.6424 52.7928 TC 35 -26.6403 52.7671 2 12 163
1951093S15054 1951 22 SI MM NOT_NAMED 1951-04-06 18:00:00 TS -27.1124 52.8609 main 624 624 O____P___OO___ jtwc_sh SH261951 -27.3000 53.0000 -1 -26.5497 52.4437 99 -27.3000 53.0000 TC 35 -27.3000 53.0000 2 12 161
1951093S15054 1951 22 SI MM NOT_NAMED 1951-04-06 21:00:00 TS -27.6609 53.0876 main 669 669 P____P___PP___ SH261951 -27.9424 53.2354 -1 -26.7900 52.6262 99 -27.9424 53.2354 TC 35 -27.9686 53.2535 2 11 159
1951093S15054 1951 22 SI MM NOT_NAMED 1951-04-07 00:00:00 TS -28.1132 53.2946 main 706 706 O____P___OP___ jtwc_sh SH261951 -28.6000 53.5000 -1 -26.9856 52.8142 99 -28.6000 53.5000 TC 35 -28.6429 53.5242 2 9 156
1951093S15054 1951 22 SI MM NOT_NAMED 1951-04-07 03:00:00 TS -28.4385 53.4808 main 739 739 P____P___PP___ SH261951 -29.2902 53.7916 -1 -27.1456 53.0066 99 -29.2902 53.7916 TC 35 -29.3208 53.8079 2 6 149
1951093S15054 1951 22 SI MM NOT_NAMED 1951-04-07 06:00:00 TS -28.6394 53.6512 main 767 682 O____P___OO___ jtwc_sh SH261951 -30.0000 54.1000 -1 -27.2788 53.2024 99 -30.0000 54.1000 TC 35 -30.0000 54.1000 2 11 356
1951093S15054 1951 22 SI MM NOT_NAMED 1951-04-07 09:00:00 NR -27.3940 53.4005 main 682 678 _____P________ SH261951 -1 -27.3940 53.4005 99 TC 2 11 358
1951093S15054 1951 22 SI MM NOT_NAMED 1951-04-07 12:00:00 NR -27.5000 53.6000 reunion main 705 _____O________ -1 -27.5000 53.6000 99 9.90000 2 4 121

About IBTrACS Database

This database is a web-friendly format of International Best Track Archive for Climate Stewardship (IBTrACS), a global best track data archive curated by NOAA dating back to 1842.

Updated: 2021-12-03